»·PEaware :: N112PC KBZN-KLWS

N112PC :: KBZN-KLWS

FLIGHT INFORMATION

Flight Status: Arrived
Operator: Privately registered:
United States
More flights under this callsign
Pilot: Gabor H. (24209)
Aircraft: PILATUS PC-12 EAGLE
(PC12)
More flights by this aircraft type
Origin: KBZN Gallatin
United States
Destination: KLWS Lewiston-Nez Perce Co
United States
More flights between these airports :: More routes between these airports
Route: TEERX4 HIA MQG
File this flight plan on PilotEdge
Remarks:
Altitude:
(Current/Filed)
24,000ft
Speed:
(Current/Filed)
260kts
Departed: 31-May-19 02:12 PM
Arrived: 31-May-19 03:14 PM
Distance/Time
Traveled:
247nm/1:02
Distance/Time
To Go:
Arrived

Flight Plot

Page will automatically refresh every two minutes.

Flight plan parsing failed; only flown route is shown


Map Options




Map Legend


Flown Route
Filed Route
Departure Airport
Arrival Airport
Navaid (VOR, NDB)
Fix

Horizontal Profiles

Position Reports

Time Latitude Longitude Heading Altitude Ground
Speed
31-May-19 13:50 45.774545 -111.154236 315 4474ft 0kts
31-May-19 13:51 45.774545 -111.154236 315 4474ft 0kts
31-May-19 13:52 45.774545 -111.154236 315 4474ft 0kts
31-May-19 13:53 45.774545 -111.154236 315 4474ft 0kts
31-May-19 13:54 45.774545 -111.154236 315 4474ft 0kts
31-May-19 13:55 45.774545 -111.154236 315 4474ft 0kts
31-May-19 13:56 45.774545 -111.154236 315 4474ft 0kts
31-May-19 13:57 45.774545 -111.154236 315 4474ft 0kts
31-May-19 13:58 45.774545 -111.154236 315 4474ft 0kts
31-May-19 13:59 45.774545 -111.154236 315 4474ft 0kts
31-May-19 14:00 45.774545 -111.154236 315 4474ft 0kts
31-May-19 14:01 45.774545 -111.154236 315 4474ft 0kts
31-May-19 14:02 45.774545 -111.154236 315 4474ft 0kts
31-May-19 14:03 45.774547 -111.154240 315 4474ft 0kts
31-May-19 14:04 45.776711 -111.154719 315 4474ft 12kts
31-May-19 14:05 45.779845 -111.159194 315 4474ft 21kts
31-May-19 14:06 45.782160 -111.162336 315 4474ft 8kts
31-May-19 14:07 45.785232 -111.166668 314 4474ft 16kts
31-May-19 14:08 45.787134 -111.167681 45 4474ft 2kts
31-May-19 14:09 45.787147 -111.167662 45 4474ft 0kts
31-May-19 14:10 45.787417 -111.167237 53 4474ft 8kts
31-May-19 14:11 45.778412 -111.153164 136 4684ft 124kts
31-May-19 14:12 45.750666 -111.142059 259 5913ft 101kts
31-May-19 14:13 45.727606 -111.186068 215 7616ft 169kts
31-May-19 14:14 45.698536 -111.240600 277 9154ft 197kts
31-May-19 14:15 45.709985 -111.320497 281 10739ft 221kts
31-May-19 14:16 45.720258 -111.405956 279 12136ft 207kts
31-May-19 14:17 45.729076 -111.485023 277 13640ft 201kts
31-May-19 14:18 45.737919 -111.563069 279 15157ft 199kts
31-May-19 14:19 45.747324 -111.645021 283 16688ft 216kts
31-May-19 14:20 45.764632 -111.727760 286 18177ft 217kts
31-May-19 14:21 45.782913 -111.810359 287 19667ft 217kts
31-May-19 14:22 45.801140 -111.893341 287 21169ft 223kts
31-May-19 14:23 45.819827 -111.978684 287 22670ft 224kts
31-May-19 14:24 45.838390 -112.063696 287 24039ft 227kts
31-May-19 14:25 45.857851 -112.156239 284 24209ft 254kts
31-May-19 14:26 45.872514 -112.257826 281 24215ft 262kts
31-May-19 14:27 45.886071 -112.360813 281 24223ft 263kts
31-May-19 14:29 45.899470 -112.464200 281 24228ft 263kts
31-May-19 14:30 45.912774 -112.567763 281 24229ft 263kts
31-May-19 14:31 45.925973 -112.671309 280 24227ft 264kts
31-May-19 14:32 45.939130 -112.775318 280 24221ft 264kts
31-May-19 14:33 45.952171 -112.879231 280 24214ft 264kts
31-May-19 14:34 45.965135 -112.983349 280 24201ft 265kts
31-May-19 14:35 45.978009 -113.087528 280 24189ft 265kts
31-May-19 14:36 45.990797 -113.191806 280 24178ft 265kts
31-May-19 14:37 46.003486 -113.296122 280 24167ft 265kts
31-May-19 14:38 46.016137 -113.400922 280 24157ft 265kts
31-May-19 14:39 46.028663 -113.505509 280 24147ft 265kts
31-May-19 14:40 46.041087 -113.610095 280 24139ft 265kts
31-May-19 14:41 46.053425 -113.714813 280 24132ft 265kts
31-May-19 14:42 46.065663 -113.819531 280 24126ft 265kts
31-May-19 14:43 46.077823 -113.924433 280 24100ft 266kts
31-May-19 14:44 46.089914 -114.029671 279 24087ft 266kts
31-May-19 14:45 46.101938 -114.135179 279 24065ft 266kts
31-May-19 14:46 46.113831 -114.240441 279 24051ft 266kts
31-May-19 14:46 46.123677 -114.328224 279 24047ft 266kts
31-May-19 14:48 46.137314 -114.450848 279 24038ft 266kts
31-May-19 14:49 46.149203 -114.559257 279 23177ft 276kts
31-May-19 14:49 46.159126 -114.650639 279 22344ft 276kts
31-May-19 14:51 46.172929 -114.778427 279 21185ft 277kts
31-May-19 14:52 46.184609 -114.887441 279 20923ft 272kts
31-May-19 14:52 46.194239 -114.977843 279 20523ft 277kts
31-May-19 14:53 46.205813 -115.087998 279 19524ft 277kts
31-May-19 14:55 46.219170 -115.216239 278 18364ft 277kts
31-May-19 14:55 46.228664 -115.308199 278 17526ft 278kts
31-May-19 14:56 46.239985 -115.418864 278 16431ft 279kts
31-May-19 14:57 46.251214 -115.529704 278 15232ft 278kts
31-May-19 14:58 46.262344 -115.640575 278 14033ft 279kts
31-May-19 14:59 46.273405 -115.751842 278 12829ft 277kts
31-May-19 15:00 46.284213 -115.861202 278 12012ft 273kts
31-May-19 15:01 46.294481 -115.965208 278 11955ft 260kts
31-May-19 15:02 46.303123 -116.071140 273 11121ft 270kts
31-May-19 15:03 46.307750 -116.179599 273 10140ft 273kts
31-May-19 15:04 46.312868 -116.287888 273 9138ft 270kts
31-May-19 15:05 46.317541 -116.394555 273 8103ft 263kts
31-May-19 15:06 46.321826 -116.500007 273 7106ft 263kts
31-May-19 15:07 46.327587 -116.602641 276 6499ft 251kts
31-May-19 15:08 46.338539 -116.701233 281 5676ft 240kts
31-May-19 15:09 46.347943 -116.787002 279 4346ft 191kts
31-May-19 15:10 46.355488 -116.857259 280 3426ft 166kts
31-May-19 15:11 46.362610 -116.923239 279 2547ft 161kts
31-May-19 15:12 46.368540 -116.979164 279 1826ft 115kts
31-May-19 15:13 46.372192 -117.012574 279 1441ft 40kts
31-May-19 15:14 46.373874 -117.018926 277 1441ft 15kts
31-May-19 15:15 46.376164 -117.019482 321 1441ft 13kts
31-May-19 15:16 46.376588 -117.019496 37 1441ft 0kts
31-May-19 15:17 46.376588 -117.019496 37 1441ft 0kts
31-May-19 15:18 46.376588 -117.019496 37 1441ft 0kts
31-May-19 15:19 46.376588 -117.019496 37 1441ft 0kts
31-May-19 15:20 46.376588 -117.019496 37 1441ft 0kts

Navigation Log

Ident Type
Flight plan parsing failed, navigation log unavailable